createdAt,value
2023-01-18T00:00:38.791Z,0.00
2023-01-18T00:01:38.805Z,0.00
2023-01-18T00:02:38.752Z,0.00
2023-01-18T00:03:38.734Z,0.00
2023-01-18T00:04:38.730Z,0.00
2023-01-18T00:05:38.697Z,0.00
2023-01-18T00:06:38.723Z,0.00
2023-01-18T00:07:38.677Z,0.00
2023-01-18T00:08:38.710Z,0.00
2023-01-18T00:09:38.700Z,0.00
2023-01-18T00:10:38.655Z,0.00
2023-01-18T00:11:38.663Z,0.00
2023-01-18T00:12:38.637Z,0.00
2023-01-18T00:13:38.647Z,0.00
2023-01-18T00:14:38.614Z,0.00
2023-01-18T00:15:38.603Z,0.00
2023-01-18T00:16:38.682Z,0.00
2023-01-18T00:17:38.577Z,0.00
2023-01-18T00:18:38.574Z,0.00
2023-01-18T00:19:38.560Z,0.00
2023-01-18T00:20:38.548Z,0.00
2023-01-18T00:21:38.574Z,0.00
2023-01-18T00:22:38.538Z,0.00
2023-01-18T00:23:38.522Z,0.00
2023-01-18T00:24:38.521Z,0.00
2023-01-18T00:25:38.496Z,0.00
2023-01-18T00:26:38.512Z,0.00
2023-01-18T00:27:38.477Z,0.00
2023-01-18T00:28:38.495Z,0.00
2023-01-18T00:29:38.464Z,0.00
2023-01-18T00:30:38.448Z,0.00
2023-01-18T00:31:38.509Z,0.00
2023-01-18T00:32:38.442Z,0.00
2023-01-18T00:33:38.480Z,0.00
2023-01-18T00:34:38.427Z,0.00
2023-01-18T00:35:38.396Z,0.00
2023-01-18T00:36:38.411Z,0.00
2023-01-18T00:37:38.398Z,0.00
2023-01-18T00:38:38.383Z,0.00
2023-01-18T00:39:38.372Z,0.00
2023-01-18T00:40:38.370Z,0.00
2023-01-18T00:41:38.356Z,0.00
2023-01-18T00:42:38.333Z,0.00
2023-01-18T00:43:38.389Z,0.00
2023-01-18T00:44:38.310Z,0.00
2023-01-18T00:45:38.393Z,0.00
2023-01-18T00:46:38.324Z,0.00
2023-01-18T00:47:38.279Z,0.00
2023-01-18T00:48:38.394Z,0.00
2023-01-18T00:49:38.251Z,0.00
2023-01-18T00:50:38.256Z,0.00
2023-01-18T00:51:38.239Z,0.00
2023-01-18T00:52:38.250Z,0.00
2023-01-18T00:53:38.343Z,0.00
2023-01-18T00:54:38.197Z,0.00
2023-01-18T00:55:38.200Z,0.00
2023-01-18T00:56:38.204Z,0.00
2023-01-18T00:57:38.195Z,0.00
2023-01-18T00:58:38.171Z,0.00
2023-01-18T00:59:38.167Z,0.00
2023-01-18T01:00:38.147Z,0.00
2023-01-18T01:01:38.287Z,0.00
2023-01-18T01:02:38.157Z,0.00
2023-01-18T01:03:38.119Z,0.00
2023-01-18T01:04:38.101Z,0.00
2023-01-18T01:05:38.096Z,0.00
2023-01-18T01:06:38.082Z,0.00
2023-01-18T01:07:38.100Z,0.00
2023-01-18T01:08:38.064Z,0.00
2023-01-18T01:09:38.072Z,0.00
2023-01-18T01:10:38.066Z,0.00
2023-01-18T01:11:38.041Z,0.00
2023-01-18T01:12:38.048Z,0.00
2023-01-18T01:13:38.019Z,0.00
2023-01-18T01:14:38.021Z,0.00
2023-01-18T01:15:37.996Z,0.00
2023-01-18T01:16:38.029Z,0.00
2023-01-18T01:17:37.997Z,0.00
2023-01-18T01:18:37.981Z,0.00
2023-01-18T01:19:37.967Z,0.00
2023-01-18T01:20:37.954Z,0.00
2023-01-18T01:21:37.937Z,0.00
2023-01-18T01:22:37.937Z,0.00
2023-01-18T01:23:37.913Z,0.00
2023-01-18T01:24:37.936Z,0.00
2023-01-18T01:25:37.891Z,0.00
2023-01-18T01:26:37.887Z,0.00
2023-01-18T01:27:37.962Z,0.00
2023-01-18T01:28:37.856Z,0.00
2023-01-18T01:29:37.858Z,0.00
2023-01-18T01:30:37.873Z,0.00
2023-01-18T01:31:37.835Z,0.00
2023-01-18T01:32:37.836Z,0.00
2023-01-18T01:33:37.825Z,0.00
2023-01-18T01:34:37.800Z,0.00
2023-01-18T01:35:37.790Z,0.00
2023-01-18T01:36:37.771Z,0.00
2023-01-18T01:37:37.797Z,0.00
2023-01-18T01:38:37.757Z,0.00
2023-01-18T01:39:37.758Z,0.00
2023-01-18T01:40:37.769Z,0.00
2023-01-18T01:41:37.743Z,0.00
2023-01-18T01:42:37.730Z,0.00
2023-01-18T01:43:37.722Z,0.00
2023-01-18T01:44:37.696Z,0.00
2023-01-18T01:45:37.764Z,0.00
2023-01-18T01:46:37.671Z,0.00
2023-01-18T01:47:37.682Z,0.00
2023-01-18T01:48:37.648Z,0.00
2023-01-18T01:49:37.642Z,0.00
2023-01-18T01:50:37.629Z,0.00
2023-01-18T01:51:37.632Z,0.00
2023-01-18T01:52:37.630Z,0.00
2023-01-18T01:53:37.604Z,0.00
2023-01-18T01:54:37.584Z,0.00
2023-01-18T01:55:37.607Z,0.00
2023-01-18T01:56:37.570Z,0.00
2023-01-18T01:57:37.599Z,0.00
2023-01-18T01:58:37.555Z,0.00
2023-01-18T01:59:37.547Z,0.00
2023-01-18T02:00:37.529Z,0.00
2023-01-18T02:01:37.754Z,0.00
2023-01-18T02:02:37.612Z,0.00
2023-01-18T02:03:37.502Z,0.00
2023-01-18T02:04:37.486Z,0.00
2023-01-18T02:05:37.475Z,0.00
2023-01-18T02:06:37.470Z,0.00
2023-01-18T02:07:37.478Z,0.00
2023-01-18T02:08:37.448Z,0.00
2023-01-18T02:09:37.443Z,0.00
2023-01-18T02:10:37.435Z,0.00
2023-01-18T02:11:37.425Z,0.00
2023-01-18T02:12:37.417Z,0.00
2023-01-18T02:13:37.400Z,0.00
2023-01-18T02:14:37.389Z,0.00
2023-01-18T02:15:37.380Z,0.00
2023-01-18T02:16:37.386Z,0.00
2023-01-18T02:17:37.381Z,0.00
2023-01-18T02:18:37.349Z,0.00
2023-01-18T02:19:37.372Z,0.00
2023-01-18T02:20:37.328Z,0.00
2023-01-18T02:21:37.313Z,0.00
2023-01-18T02:22:37.321Z,0.00
2023-01-18T02:23:37.304Z,0.00
2023-01-18T02:24:37.286Z,0.00
2023-01-18T02:25:37.278Z,0.00
2023-01-18T02:26:37.260Z,0.00
2023-01-18T02:27:37.291Z,0.00
2023-01-18T02:28:37.236Z,0.00
2023-01-18T02:29:37.233Z,0.00
2023-01-18T02:30:37.319Z,0.00
2023-01-18T02:31:37.230Z,0.00
2023-01-18T02:32:37.235Z,0.00
2023-01-18T02:33:37.203Z,0.00
2023-01-18T02:34:37.186Z,0.00
2023-01-18T02:35:37.176Z,0.00
2023-01-18T02:36:37.172Z,0.00
2023-01-18T02:37:37.175Z,0.00
2023-01-18T02:38:37.139Z,0.00
2023-01-18T02:39:37.148Z,0.00
2023-01-18T02:40:37.116Z,0.00
2023-01-18T02:41:37.110Z,0.00
2023-01-18T02:42:37.114Z,0.00
2023-01-18T02:43:37.093Z,0.00
2023-01-18T02:44:37.081Z,0.00
2023-01-18T02:45:37.105Z,0.00
2023-01-18T02:46:37.066Z,0.00
2023-01-18T02:47:37.072Z,0.00
2023-01-18T02:48:37.059Z,0.00
2023-01-18T02:49:37.042Z,0.00
2023-01-18T02:50:37.034Z,0.00
2023-01-18T02:51:37.028Z,0.00
2023-01-18T02:52:37.013Z,0.00
2023-01-18T02:53:36.990Z,0.00
2023-01-18T02:54:36.973Z,0.00
2023-01-18T02:55:36.980Z,0.00
2023-01-18T02:56:36.952Z,0.00
2023-01-18T02:57:36.971Z,0.00
2023-01-18T02:58:36.938Z,0.00
2023-01-18T02:59:36.932Z,0.00
2023-01-18T03:00:36.912Z,0.00
2023-01-18T03:01:37.000Z,0.00
2023-01-18T03:02:36.996Z,0.00
2023-01-18T03:03:36.897Z,0.00
2023-01-18T03:04:36.892Z,0.00
2023-01-18T03:05:36.908Z,0.00
2023-01-18T03:06:36.892Z,0.00
2023-01-18T03:07:36.869Z,0.00
2023-01-18T03:08:36.837Z,0.00
2023-01-18T03:09:36.827Z,0.00
2023-01-18T03:10:36.810Z,0.00
2023-01-18T03:11:36.819Z,0.00
2023-01-18T03:12:36.813Z,0.00
2023-01-18T03:13:36.783Z,0.00
2023-01-18T03:14:36.773Z,0.00
2023-01-18T03:15:36.815Z,0.00
2023-01-18T03:16:36.755Z,0.00
2023-01-18T03:17:36.753Z,0.00
2023-01-18T03:18:36.755Z,0.00
2023-01-18T03:19:36.734Z,0.00
2023-01-18T03:20:36.713Z,0.00
2023-01-18T03:21:36.707Z,0.00
2023-01-18T03:22:36.692Z,0.00
2023-01-18T03:23:36.710Z,0.00
2023-01-18T03:24:36.672Z,0.00
2023-01-18T03:25:36.678Z,0.00
2023-01-18T03:26:36.681Z,0.00
2023-01-18T03:27:36.677Z,0.00
2023-01-18T03:28:36.691Z,0.00
2023-01-18T03:29:36.632Z,0.00
2023-01-18T03:30:36.612Z,0.00
2023-01-18T03:31:36.620Z,0.00
2023-01-18T03:32:36.593Z,0.00
2023-01-18T03:33:36.597Z,0.00
2023-01-18T03:34:36.568Z,0.00
2023-01-18T03:35:36.573Z,0.00
2023-01-18T03:36:36.548Z,0.00
2023-01-18T03:37:36.541Z,0.00
2023-01-18T03:38:36.552Z,0.00
2023-01-18T03:39:36.527Z,0.00
2023-01-18T03:40:36.516Z,0.00
2023-01-18T03:41:36.517Z,0.00
2023-01-18T03:42:36.490Z,0.00
2023-01-18T03:43:36.498Z,0.00
2023-01-18T03:44:36.471Z,0.00
2023-01-18T03:45:36.463Z,0.00
2023-01-18T03:46:36.516Z,0.00
2023-01-18T03:47:36.440Z,0.00
2023-01-18T03:48:36.442Z,0.00
2023-01-18T03:49:36.426Z,0.00
2023-01-18T03:50:36.407Z,0.00
2023-01-18T03:51:36.407Z,0.00
2023-01-18T03:52:36.391Z,0.00
2023-01-18T03:53:36.395Z,0.00
2023-01-18T03:54:36.368Z,0.00
2023-01-18T03:55:36.359Z,0.00
2023-01-18T03:56:36.356Z,0.00
2023-01-18T03:57:36.340Z,0.00
2023-01-18T03:58:36.341Z,0.00
2023-01-18T03:59:36.321Z,0.00
2023-01-18T04:00:36.299Z,0.00
2023-01-18T04:01:36.319Z,0.00
2023-01-18T04:02:36.343Z,0.00
2023-01-18T04:03:36.297Z,0.00
2023-01-18T04:04:36.291Z,0.00
2023-01-18T04:05:36.259Z,0.00
2023-01-18T04:06:36.247Z,0.00
2023-01-18T04:07:36.236Z,0.00
2023-01-18T04:08:36.251Z,0.00
2023-01-18T04:09:36.217Z,0.00
2023-01-18T04:10:36.206Z,0.00
2023-01-18T04:11:36.227Z,0.00
2023-01-18T04:12:36.175Z,0.00
2023-01-18T04:13:36.225Z,0.00
2023-01-18T04:14:36.167Z,0.00
2023-01-18T04:15:36.165Z,0.00
2023-01-18T04:16:36.144Z,0.00
2023-01-18T04:17:36.158Z,0.00
2023-01-18T04:18:36.136Z,0.00
2023-01-18T04:19:36.113Z,0.00
2023-01-18T04:20:36.099Z,0.00
2023-01-18T04:21:36.101Z,0.00
2023-01-18T04:22:36.078Z,0.00
2023-01-18T04:23:36.100Z,0.00
2023-01-18T04:24:36.114Z,0.00
2023-01-18T04:25:36.056Z,0.00
2023-01-18T04:26:36.043Z,0.00
2023-01-18T04:27:36.073Z,0.00
2023-01-18T04:28:36.039Z,0.00
2023-01-18T04:29:36.032Z,0.00
2023-01-18T04:30:36.003Z,0.00
2023-01-18T04:31:36.023Z,0.00
2023-01-18T04:32:35.983Z,0.00
2023-01-18T04:33:36.012Z,0.00
2023-01-18T04:34:35.971Z,0.00
2023-01-18T04:35:35.965Z,0.00
2023-01-18T04:36:35.937Z,0.00
2023-01-18T04:37:35.936Z,0.00
2023-01-18T04:38:35.952Z,0.00
2023-01-18T04:39:35.916Z,0.00
2023-01-18T04:40:35.901Z,0.00
2023-01-18T04:41:35.907Z,0.00
2023-01-18T04:42:35.885Z,0.00
2023-01-18T04:43:35.902Z,0.00
2023-01-18T04:44:35.857Z,0.00
2023-01-18T04:45:35.855Z,0.00
2023-01-18T04:46:35.884Z,0.00
2023-01-18T04:47:35.839Z,0.00
2023-01-18T04:48:35.843Z,0.00
2023-01-18T04:49:35.810Z,0.00
2023-01-18T04:50:35.800Z,0.00
2023-01-18T04:51:35.789Z,0.00
2023-01-18T04:52:35.785Z,0.00
2023-01-18T04:53:35.809Z,0.00
2023-01-18T04:54:35.757Z,0.00
2023-01-18T04:55:35.750Z,0.00
2023-01-18T04:56:35.734Z,0.00
2023-01-18T04:57:35.737Z,0.00
2023-01-18T04:58:35.732Z,0.00
2023-01-18T04:59:35.712Z,0.00
2023-01-18T05:00:35.738Z,0.00
2023-01-18T05:01:35.806Z,0.00
2023-01-18T05:02:35.729Z,0.00
2023-01-18T05:03:35.692Z,0.00
2023-01-18T05:04:35.662Z,0.00
2023-01-18T05:05:35.651Z,0.00
2023-01-18T05:06:35.654Z,0.00
2023-01-18T05:07:35.628Z,0.00
2023-01-18T05:08:35.650Z,0.00
2023-01-18T05:09:35.604Z,0.00
2023-01-18T05:10:35.608Z,0.00
2023-01-18T05:11:35.616Z,0.00
2023-01-18T05:12:35.589Z,0.00
2023-01-18T05:13:35.581Z,0.00
2023-01-18T05:14:35.570Z,0.00
2023-01-18T05:15:35.563Z,0.00
2023-01-18T05:16:35.621Z,0.00
2023-01-18T05:17:35.528Z,0.00
2023-01-18T05:18:35.539Z,0.00
2023-01-18T05:19:35.525Z,0.00
2023-01-18T05:20:35.510Z,0.00
2023-01-18T05:21:35.494Z,0.00
2023-01-18T05:22:35.493Z,0.00
2023-01-18T05:23:35.483Z,0.00
2023-01-18T05:24:35.461Z,0.00
2023-01-18T05:25:35.447Z,0.00
2023-01-18T05:26:35.443Z,0.00
2023-01-18T05:27:35.419Z,0.00
2023-01-18T05:28:35.436Z,0.00
2023-01-18T05:29:35.423Z,0.00
2023-01-18T05:30:35.399Z,0.00
2023-01-18T05:31:35.461Z,0.00
2023-01-18T05:32:35.373Z,0.00
2023-01-18T05:33:35.385Z,0.00
2023-01-18T05:34:35.356Z,0.00
2023-01-18T05:35:35.339Z,0.00
2023-01-18T05:36:35.333Z,0.00
2023-01-18T05:37:35.313Z,0.00
2023-01-18T05:38:35.335Z,0.00
2023-01-18T05:39:35.300Z,0.00
2023-01-18T05:40:35.320Z,0.00
2023-01-18T05:41:35.285Z,0.00
2023-01-18T05:42:35.359Z,0.00
2023-01-18T05:43:35.830Z,0.00
2023-01-18T05:44:35.269Z,0.00
2023-01-18T05:45:35.276Z,0.00
2023-01-18T05:46:35.258Z,0.00
2023-01-18T05:47:35.229Z,0.00
2023-01-18T05:48:35.236Z,0.00
2023-01-18T05:49:35.219Z,0.00
2023-01-18T05:50:35.200Z,0.00
2023-01-18T05:51:35.227Z,0.00
2023-01-18T05:52:35.178Z,0.00
2023-01-18T05:53:35.185Z,0.00
2023-01-18T05:54:35.166Z,0.00
2023-01-18T05:55:35.133Z,0.00
2023-01-18T05:56:35.130Z,0.00
2023-01-18T05:57:35.147Z,0.00
2023-01-18T05:58:35.131Z,0.00
2023-01-18T05:59:35.101Z,0.00
2023-01-18T06:00:35.102Z,0.00
2023-01-18T06:01:35.161Z,0.00
2023-01-18T06:02:35.073Z,0.00
2023-01-18T06:03:35.094Z,0.00
2023-01-18T06:04:35.140Z,0.00
2023-01-18T06:05:35.035Z,0.00
2023-01-18T06:06:35.035Z,0.00
2023-01-18T06:07:35.013Z,0.00
2023-01-18T06:08:35.065Z,0.00
2023-01-18T06:09:35.005Z,0.00
2023-01-18T06:10:34.996Z,0.00
2023-01-18T06:11:34.986Z,0.00
2023-01-18T06:12:34.972Z,0.00
2023-01-18T06:13:34.980Z,0.00
2023-01-18T06:14:34.956Z,0.00
2023-01-18T06:15:34.937Z,0.00
2023-01-18T06:16:34.966Z,0.00
2023-01-18T06:17:34.927Z,0.00
2023-01-18T06:18:34.952Z,0.00
2023-01-18T06:19:34.907Z,0.00
2023-01-18T06:20:34.896Z,0.00
2023-01-18T06:21:34.886Z,0.00
2023-01-18T06:22:34.879Z,0.00
2023-01-18T06:23:34.866Z,0.00
2023-01-18T06:24:34.866Z,0.00
2023-01-18T06:25:34.860Z,0.00
2023-01-18T06:26:34.844Z,0.00
2023-01-18T06:27:34.820Z,0.00
2023-01-18T06:28:34.819Z,0.00
2023-01-18T06:29:34.818Z,0.00
2023-01-18T06:30:34.787Z,0.00
2023-01-18T06:31:34.820Z,0.00
2023-01-18T06:32:34.776Z,0.00
2023-01-18T06:33:34.767Z,0.00
2023-01-18T06:34:34.771Z,0.00
2023-01-18T06:35:34.749Z,0.00
2023-01-18T06:36:34.726Z,0.00
2023-01-18T06:37:34.725Z,0.00
2023-01-18T06:38:34.714Z,0.00
2023-01-18T06:39:34.727Z,0.00
2023-01-18T06:40:34.687Z,0.00
2023-01-18T06:41:34.671Z,0.00
2023-01-18T06:42:34.680Z,0.00
2023-01-18T06:43:34.652Z,0.00
2023-01-18T06:44:34.667Z,0.00
2023-01-18T06:45:34.647Z,0.00
2023-01-18T06:46:34.641Z,0.00
2023-01-18T06:47:34.612Z,0.00
2023-01-18T06:48:34.606Z,0.00
2023-01-18T06:49:34.614Z,0.00
2023-01-18T06:50:34.585Z,0.00
2023-01-18T06:51:34.576Z,0.00
2023-01-18T06:52:34.585Z,0.00
2023-01-18T06:53:37.477Z,0.00
2023-01-18T06:54:34.517Z,1.00
2023-01-18T06:55:34.501Z,1.00
2023-01-18T06:56:34.478Z,1.00
2023-01-18T06:57:34.456Z,1.00
2023-01-18T06:58:34.454Z,1.00
2023-01-18T06:59:34.456Z,2.00
2023-01-18T07:00:34.444Z,2.00
2023-01-18T07:01:34.520Z,2.00
2023-01-18T07:02:34.416Z,1.00
2023-01-18T07:03:34.406Z,1.00
2023-01-18T07:04:35.771Z,2.00
2023-01-18T07:05:34.378Z,1.00
2023-01-18T07:06:34.369Z,1.00
2023-01-18T07:07:34.394Z,6.00
2023-01-18T07:08:34.349Z,3.00
2023-01-18T07:09:34.355Z,2.00
2023-01-18T07:10:34.336Z,5.00
2023-01-18T07:11:34.339Z,7.00
2023-01-18T07:12:34.307Z,5.00
2023-01-18T07:13:34.302Z,3.00
2023-01-18T07:14:34.303Z,7.00
2023-01-18T07:15:34.273Z,8.00
2023-01-18T07:16:34.287Z,12.00
2023-01-18T07:17:34.255Z,13.00
2023-01-18T07:18:34.252Z,15.00
2023-01-18T07:19:34.254Z,14.00
2023-01-18T07:20:34.232Z,14.00
2023-01-18T07:21:34.211Z,17.00
2023-01-18T07:22:34.208Z,20.00
2023-01-18T07:23:34.193Z,19.00
2023-01-18T07:24:34.205Z,20.00
2023-01-18T07:25:34.175Z,23.00
2023-01-18T07:26:34.173Z,28.00
2023-01-18T07:27:34.170Z,27.00
2023-01-18T07:28:34.153Z,30.00
2023-01-18T07:29:34.164Z,32.00
2023-01-18T07:30:34.123Z,33.00
2023-01-18T07:31:34.152Z,31.00
2023-01-18T07:32:34.106Z,39.00
2023-01-18T07:33:34.095Z,40.00
2023-01-18T07:34:34.111Z,41.00
2023-01-18T07:35:34.068Z,40.00
2023-01-18T07:36:34.064Z,43.00
2023-01-18T07:37:34.052Z,45.00
2023-01-18T07:38:34.041Z,49.00
2023-01-18T07:39:34.049Z,50.00
2023-01-18T07:40:34.034Z,50.00
2023-01-18T07:41:34.010Z,56.00
2023-01-18T07:42:34.001Z,52.00
2023-01-18T07:43:33.991Z,59.00
2023-01-18T07:44:34.000Z,60.00
2023-01-18T07:45:33.969Z,65.00
2023-01-18T07:46:34.046Z,65.00
2023-01-18T07:47:33.956Z,65.00
2023-01-18T07:48:33.947Z,72.00
2023-01-18T07:49:33.941Z,74.00
2023-01-18T07:50:33.925Z,75.00
2023-01-18T07:51:33.917Z,79.00
2023-01-18T07:52:33.896Z,81.00
2023-01-18T07:53:33.887Z,86.00
2023-01-18T07:54:33.890Z,89.00
2023-01-18T07:55:33.873Z,95.00
2023-01-18T07:56:33.913Z,91.00
2023-01-18T07:57:33.840Z,98.00
2023-01-18T07:58:33.850Z,104.00
2023-01-18T07:59:33.841Z,105.00
2023-01-18T08:00:33.819Z,107.00
2023-01-18T08:01:33.902Z,115.00
2023-01-18T08:02:33.842Z,113.00
2023-01-18T08:03:33.784Z,115.00
2023-01-18T08:04:33.796Z,120.00
2023-01-18T08:05:33.766Z,121.00
2023-01-18T08:06:33.758Z,124.00
2023-01-18T08:07:33.742Z,128.00
2023-01-18T08:08:33.735Z,133.00
2023-01-18T08:09:33.742Z,135.00
2023-01-18T08:10:33.725Z,137.00
2023-01-18T08:11:33.710Z,142.00
2023-01-18T08:12:33.699Z,144.00
2023-01-18T08:13:33.681Z,150.00
2023-01-18T08:14:33.687Z,147.00
2023-01-18T08:15:33.699Z,152.00
2023-01-18T08:16:33.676Z,157.00
2023-01-18T08:17:33.641Z,162.00
2023-01-18T08:18:33.643Z,166.00
2023-01-18T08:19:33.656Z,165.00
2023-01-18T08:20:33.621Z,165.00
2023-01-18T08:21:33.678Z,177.00
2023-01-18T08:22:33.596Z,176.00
2023-01-18T08:23:33.585Z,176.00
2023-01-18T08:24:33.599Z,175.00
2023-01-18T08:25:33.672Z,172.00
2023-01-18T08:26:33.558Z,174.00
2023-01-18T08:27:33.543Z,181.00
2023-01-18T08:28:33.547Z,179.00
2023-01-18T08:29:33.544Z,180.00
2023-01-18T08:30:33.525Z,183.00
2023-01-18T08:31:33.607Z,184.00
2023-01-18T08:32:33.495Z,188.00
2023-01-18T08:33:33.480Z,193.00
2023-01-18T08:34:33.496Z,192.00
2023-01-18T08:35:33.468Z,192.00
2023-01-18T08:36:33.471Z,193.00
2023-01-18T08:37:33.464Z,196.00
2023-01-18T08:38:33.438Z,196.00
2023-01-18T08:39:33.450Z,200.00
2023-01-18T08:40:33.425Z,209.00
2023-01-18T08:41:33.406Z,213.00
2023-01-18T08:42:33.393Z,213.00
2023-01-18T08:43:33.387Z,213.00
2023-01-18T08:44:33.394Z,211.00
2023-01-18T08:45:33.365Z,213.00
2023-01-18T08:46:33.383Z,214.00
2023-01-18T08:47:33.343Z,213.00
2023-01-18T08:48:33.334Z,216.00
2023-01-18T08:49:33.343Z,221.00
2023-01-18T08:50:33.315Z,220.00
2023-01-18T08:51:33.321Z,223.00
2023-01-18T08:52:33.291Z,226.00
2023-01-18T08:53:33.298Z,232.00
2023-01-18T08:54:33.298Z,234.00
2023-01-18T08:55:33.279Z,230.00
2023-01-18T08:56:33.266Z,233.00
2023-01-18T08:57:33.253Z,238.00
2023-01-18T08:58:33.236Z,237.00
2023-01-18T08:59:33.229Z,243.00
2023-01-18T09:00:33.218Z,247.00
2023-01-18T09:01:33.340Z,245.00
2023-01-18T09:02:33.225Z,251.00
2023-01-18T09:03:33.177Z,254.00
2023-01-18T09:04:33.191Z,256.00
2023-01-18T09:05:33.167Z,256.00
2023-01-18T09:06:33.167Z,260.00
2023-01-18T09:07:33.142Z,265.00
2023-01-18T09:08:33.125Z,268.00
2023-01-18T09:09:33.132Z,276.00
2023-01-18T09:10:33.124Z,285.00
2023-01-18T09:11:33.090Z,284.00
2023-01-18T09:12:33.093Z,288.00
2023-01-18T09:13:33.085Z,293.00
2023-01-18T09:14:33.068Z,289.00
2023-01-18T09:15:33.080Z,293.00
2023-01-18T09:16:33.084Z,298.00
2023-01-18T09:17:33.031Z,300.00
2023-01-18T09:18:33.026Z,296.00
2023-01-18T09:19:33.027Z,297.00
2023-01-18T09:20:33.033Z,303.00
2023-01-18T09:21:32.995Z,310.00
2023-01-18T09:22:33.014Z,308.00
2023-01-18T09:23:32.987Z,307.00
2023-01-18T09:24:32.961Z,311.00
2023-01-18T09:25:32.981Z,307.00
2023-01-18T09:26:32.944Z,310.00
2023-01-18T09:27:32.933Z,318.00
2023-01-18T09:28:32.939Z,320.00
2023-01-18T09:29:32.920Z,327.00
2023-01-18T09:30:32.917Z,317.00
2023-01-18T09:31:32.918Z,318.00
2023-01-18T09:32:32.889Z,325.00
2023-01-18T09:33:37.949Z,326.00
2023-01-18T09:34:32.869Z,317.00
2023-01-18T09:35:32.877Z,315.00
2023-01-18T09:36:32.843Z,316.00
2023-01-18T09:37:32.849Z,323.00
2023-01-18T09:38:32.822Z,320.00
2023-01-18T09:39:43.048Z,318.00
2023-01-18T09:40:32.822Z,317.00
2023-01-18T09:41:32.797Z,325.00
2023-01-18T09:42:32.782Z,326.00
2023-01-18T09:43:32.769Z,335.00
2023-01-18T09:44:32.751Z,333.00
2023-01-18T09:45:32.777Z,349.00
2023-01-18T09:46:32.772Z,357.00
2023-01-18T09:47:32.732Z,352.00
2023-01-18T09:48:32.744Z,357.00
2023-01-18T09:49:32.722Z,363.00
2023-01-18T09:50:32.711Z,362.00
2023-01-18T09:51:32.738Z,367.00
2023-01-18T09:52:32.681Z,376.00
2023-01-18T09:53:32.664Z,383.00
2023-01-18T09:54:32.653Z,396.00
2023-01-18T09:55:32.659Z,404.00
2023-01-18T09:56:32.629Z,411.00
2023-01-18T09:57:32.627Z,415.00
2023-01-18T09:58:32.609Z,423.00
2023-01-18T09:59:32.610Z,433.00
2023-01-18T10:00:32.624Z,433.00
2023-01-18T10:01:32.790Z,436.00
2023-01-18T10:02:32.600Z,435.00
2023-01-18T10:03:32.565Z,440.00
2023-01-18T10:04:32.552Z,440.00
2023-01-18T10:05:32.609Z,440.00
2023-01-18T10:06:32.532Z,435.00
2023-01-18T10:07:32.531Z,423.00
2023-01-18T10:08:32.513Z,417.00
2023-01-18T10:09:32.532Z,418.00
2023-01-18T10:10:32.499Z,416.00
2023-01-18T10:11:32.495Z,407.00
2023-01-18T10:12:32.494Z,412.00
2023-01-18T10:13:32.463Z,410.00
2023-01-18T10:14:32.442Z,408.00
2023-01-18T10:15:32.462Z,415.00
2023-01-18T10:16:32.457Z,413.00
2023-01-18T10:17:32.419Z,410.00
2023-01-18T10:18:32.412Z,403.00
2023-01-18T10:19:32.392Z,400.00
2023-01-18T10:20:32.402Z,411.00
2023-01-18T10:21:32.378Z,419.00
2023-01-18T10:22:32.393Z,420.00
2023-01-18T10:23:32.363Z,421.00
2023-01-18T10:24:32.344Z,425.00
2023-01-18T10:25:32.355Z,438.00
2023-01-18T10:26:32.324Z,459.00
2023-01-18T10:27:32.310Z,466.00
2023-01-18T10:28:32.333Z,460.00
2023-01-18T10:29:34.845Z,452.00
2023-01-18T10:30:32.295Z,454.00
2023-01-18T10:31:32.429Z,433.00
2023-01-18T10:32:32.287Z,455.00
2023-01-18T10:33:32.264Z,463.00
2023-01-18T10:34:32.264Z,469.00
2023-01-18T10:35:32.278Z,462.00
2023-01-18T10:36:32.234Z,476.00
2023-01-18T10:37:32.218Z,474.00
2023-01-18T10:38:32.214Z,472.00
2023-01-18T10:39:32.194Z,480.00
2023-01-18T10:40:32.200Z,492.00
2023-01-18T10:41:32.170Z,484.00
2023-01-18T10:42:32.152Z,481.00
2023-01-18T10:43:32.274Z,481.00
2023-01-18T10:44:32.144Z,479.00
2023-01-18T10:45:32.182Z,474.00
2023-01-18T10:46:32.206Z,462.00
2023-01-18T10:47:32.117Z,454.00
2023-01-18T10:48:32.123Z,440.00
2023-01-18T10:49:32.118Z,443.00
2023-01-18T10:50:32.099Z,443.00
2023-01-18T10:51:32.075Z,440.00
2023-01-18T10:52:32.139Z,437.00
2023-01-18T10:53:32.087Z,438.00
2023-01-18T10:54:32.052Z,425.00
2023-01-18T10:55:32.029Z,427.00
2023-01-18T10:56:32.035Z,438.00
2023-01-18T10:57:32.019Z,435.00
2023-01-18T10:58:31.992Z,442.00
2023-01-18T10:59:32.013Z,449.00
2023-01-18T11:00:31.980Z,452.00
2023-01-18T11:01:32.107Z,444.00
2023-01-18T11:02:32.021Z,449.00
2023-01-18T11:03:31.949Z,450.00
2023-01-18T11:04:31.937Z,463.00
2023-01-18T11:05:31.923Z,473.00
2023-01-18T11:06:31.925Z,487.00
2023-01-18T11:07:31.904Z,489.00
2023-01-18T11:08:31.891Z,499.00
2023-01-18T11:09:31.887Z,507.00
2023-01-18T11:10:31.873Z,503.00
2023-01-18T11:11:31.884Z,487.00
2023-01-18T11:12:31.871Z,504.00
2023-01-18T11:13:31.849Z,522.00
2023-01-18T11:14:31.830Z,504.00
2023-01-18T11:15:31.830Z,485.00
2023-01-18T11:16:31.934Z,489.00
2023-01-18T11:17:31.807Z,485.00
2023-01-18T11:18:31.816Z,497.00
2023-01-18T11:19:31.793Z,499.00
2023-01-18T11:20:31.795Z,485.00
2023-01-18T11:21:31.815Z,498.00
2023-01-18T11:22:31.748Z,500.00
2023-01-18T11:23:31.747Z,507.00
2023-01-18T11:24:31.738Z,530.00
2023-01-18T11:25:31.740Z,535.00
2023-01-18T11:26:31.717Z,541.00
2023-01-18T11:27:31.722Z,516.00
2023-01-18T11:28:31.693Z,517.00
2023-01-18T11:29:31.698Z,510.00
2023-01-18T11:30:31.673Z,518.00
2023-01-18T11:31:31.722Z,516.00
2023-01-18T11:32:31.659Z,520.00
2023-01-18T11:33:31.641Z,510.00
2023-01-18T11:34:31.768Z,511.00
2023-01-18T11:35:31.622Z,515.00
2023-01-18T11:36:31.612Z,506.00
2023-01-18T11:37:31.597Z,512.00
2023-01-18T11:38:31.609Z,529.00
2023-01-18T11:39:31.591Z,517.00
2023-01-18T11:40:31.601Z,516.00
2023-01-18T11:41:31.580Z,504.00
2023-01-18T11:42:31.552Z,501.00
2023-01-18T11:43:31.556Z,502.00
2023-01-18T11:44:31.525Z,507.00
2023-01-18T11:45:31.546Z,512.00
2023-01-18T11:46:31.517Z,517.00
2023-01-18T11:47:31.516Z,524.00
2023-01-18T11:48:31.475Z,528.00
2023-01-18T11:49:31.491Z,520.00
2023-01-18T11:50:31.472Z,533.00
2023-01-18T11:51:31.479Z,526.00
2023-01-18T11:52:31.441Z,537.00
2023-01-18T11:53:31.441Z,533.00
2023-01-18T11:54:31.429Z,527.00
2023-01-18T11:55:31.420Z,518.00
2023-01-18T11:56:31.410Z,515.00
2023-01-18T11:57:31.391Z,513.00
2023-01-18T11:58:31.389Z,505.00
2023-01-18T11:59:31.368Z,496.00
2023-01-18T12:00:31.358Z,490.00
2023-01-18T12:01:31.363Z,480.00
2023-01-18T12:02:31.414Z,488.00
2023-01-18T12:03:31.367Z,478.00
2023-01-18T12:04:31.319Z,464.00
2023-01-18T12:05:31.335Z,459.00
2023-01-18T12:06:31.319Z,462.00
2023-01-18T12:07:31.287Z,456.00
2023-01-18T12:08:31.270Z,451.00
2023-01-18T12:09:31.269Z,460.00
2023-01-18T12:10:31.251Z,453.00
2023-01-18T12:11:31.262Z,443.00
2023-01-18T12:12:31.227Z,455.00
2023-01-18T12:13:31.233Z,457.00
2023-01-18T12:14:31.212Z,441.00
2023-01-18T12:15:31.225Z,435.00
2023-01-18T12:16:31.270Z,423.00
2023-01-18T12:17:31.202Z,427.00
2023-01-18T12:18:31.168Z,414.00
2023-01-18T12:19:31.172Z,411.00
2023-01-18T12:20:31.154Z,416.00
2023-01-18T12:21:31.163Z,402.00
2023-01-18T12:22:31.136Z,394.00
2023-01-18T12:23:31.130Z,400.00
2023-01-18T12:24:31.106Z,408.00
2023-01-18T12:25:31.104Z,429.00
2023-01-18T12:26:31.119Z,424.00
2023-01-18T12:27:31.141Z,443.00
2023-01-18T12:28:31.063Z,440.00
2023-01-18T12:29:31.107Z,422.00
2023-01-18T12:30:31.080Z,423.00
2023-01-18T12:31:31.060Z,426.00
2023-01-18T12:32:31.039Z,427.00
2023-01-18T12:33:42.710Z,423.00
2023-01-18T12:34:31.012Z,421.00
2023-01-18T12:35:31.006Z,425.00
2023-01-18T12:36:31.004Z,412.00
2023-01-18T12:37:30.994Z,425.00
2023-01-18T12:38:30.963Z,405.00
2023-01-18T12:39:30.970Z,403.00
2023-01-18T12:40:30.943Z,377.00
2023-01-18T12:41:30.952Z,373.00
2023-01-18T12:42:30.928Z,371.00
2023-01-18T12:43:30.926Z,393.00
2023-01-18T12:44:30.903Z,406.00
2023-01-18T12:45:30.906Z,421.00
2023-01-18T12:46:30.912Z,434.00
2023-01-18T12:47:30.875Z,430.00
2023-01-18T12:48:30.860Z,434.00
2023-01-18T12:49:30.857Z,433.00
2023-01-18T12:50:30.835Z,394.00
2023-01-18T12:51:30.896Z,409.00
2023-01-18T12:52:30.822Z,422.00
2023-01-18T12:53:30.823Z,419.00
2023-01-18T12:54:30.817Z,426.00
2023-01-18T12:55:30.812Z,418.00
2023-01-18T12:56:30.824Z,394.00
2023-01-18T12:57:30.789Z,399.00